Flight Track Log - Related Links

Times and Time Zones

All times are in EDT time to prevent confusion due to time zone crossing. See the CPZ5718 flight status page for this flight to view local times or setup timezone preferences in your user account.

Time Position Orientation Groundspeed Altitude Reporting Facility
EDT Latitude Longitude Course Direction KTS MPH feet Rate Location/Type
Sun 10:37:16 AM 51.0667 -114.0333 119° Southeast 170 196 3,900  Level Edmonton Center
Sun 10:38:16 AM 51.0167 -114.0500 192° South 200 230 5,100 1,600 Climbing Edmonton Center
Sun 10:39:16 AM 50.9500 -114.0333 171° South 250 288 7,100 2,100 Climbing Edmonton Center
Sun 10:40:00 AM 50.9729 -113.2581 121° Southeast  Level Estimated
Sun 10:40:16 AM 50.8833 -114.0167 171° South 300 345 9,300  Level Edmonton Center
Sun 10:41:00 AM 50.8940 -113.1044 129° Southeast  Level FlightAware Approximate
Sun 10:41:16 AM 50.8667 -113.8833 101° East 310 357 11,400  Level Edmonton Center
Sun 10:42:00 AM 50.8581 -112.9149 119° Southeast  Level Estimated
Sun 10:42:16 AM 50.8667 -113.7167 90° East 350 403 13,200  Level Edmonton Center
Sun 10:43:16 AM 50.8667 -113.5833 90° East 360 414 15,300 2,100 Climbing Edmonton Center
Sun 10:44:16 AM 50.8833 -113.4000 82° East 370 426 17,400 2,000 Climbing Edmonton Center
Sun 10:45:16 AM 50.8500 -113.2333 108° East 390 449 19,300 1,750 Climbing Edmonton Center
Sun 10:46:16 AM 50.7833 -113.0667 122° Southeast 420 483 20,900 1,450 Climbing Edmonton Center
Sun 10:47:16 AM 50.7333 -112.9167 118° Southeast 430 495 22,200 1,200 Climbing Edmonton Center
Sun 10:48:16 AM 50.6833 -112.7500 115° Southeast 450 518 23,300 1,050 Climbing Edmonton Center
Sun 10:49:16 AM 50.6000 -112.5500 123° Southeast 470 541 24,300 1,000 Climbing Edmonton Center
Sun 10:50:16 AM 50.5333 -112.3667 120° Southeast 480 552 25,300 1,050 Climbing Edmonton Center
Sun 10:51:16 AM 50.4667 -112.1833 120° Southeast 490 564 26,400 1,000 Climbing Edmonton Center
Sun 10:52:16 AM 50.3833 -112.0000 125° Southeast 490 564 27,300 950 Climbing Edmonton Center
Sun 10:53:16 AM 50.3167 -111.8000 118° Southeast 490 564 28,300 1,000 Climbing Edmonton Center
Sun 10:54:16 AM 50.2500 -111.6333 122° Southeast 500 575 29,300 1,000 Climbing Edmonton Center
Sun 10:56:16 AM 50.1167 -111.2500 118° Southeast 490 564 31,300 967 Climbing Edmonton Center
Sun 10:57:16 AM 50.0333 -111.0833 128° Southeast 490 564 32,200 1,000 Climbing Edmonton Center
Sun 10:58:16 AM 49.9667 -110.8833 117° Southeast 480 552 33,300 850 Climbing Edmonton Center
Sun 10:59:16 AM 49.9167 -110.7167 115° Southeast 460 529 33,900 550 Climbing Edmonton Center
Sun 11:00:16 AM 49.8833 -110.5167 104° East 450 518 34,400 500 Climbing Edmonton Center
Sun 11:01:16 AM 49.8500 -110.3500 107° East 450 518 34,900 300 Climbing Edmonton Center
Sun 11:02:16 AM 49.8167 -110.1333 103° East 460 529 35,000 50 Climbing Edmonton Center
Sun 11:03:16 AM 49.8000 -109.9500 98° East 470 541 35,000  Level Edmonton Center
Sun 11:04:16 AM 49.7500 -109.7333 110° East 480 552 35,000  Level Edmonton Center
Sun 11:05:16 AM 49.7333 -109.5500 98° East 480 552 35,000  Level Edmonton Center
Sun 11:05:48 AM 49.7167 -109.4500 104° East 480 552 35,000  Level Winnipeg Center
Sun 11:06:48 AM 49.6833 -109.2667 106° East 480 552 35,000  Level Winnipeg Center
Sun 11:07:48 AM 49.6500 -109.0667 104° East 480 552 35,000  Level Winnipeg Center
Sun 11:08:48 AM 49.6000 -108.8667 111° Southeast 490 564 35,000  Level Winnipeg Center
Sun 11:09:48 AM 49.5833 -108.6667 97° East 490 564 35,000  Level Winnipeg Center
Sun 11:10:48 AM 49.5500 -108.4667 104° East 490 564 35,000  Level Winnipeg Center
Sun 11:11:48 AM 49.5000 -108.2833 113° Southeast 490 564 35,000  Level Winnipeg Center
Sun 11:12:48 AM 49.4667 -108.0667 103° East 490 564 35,000  Level Winnipeg Center
Sun 11:13:48 AM 49.4167 -107.8667 111° Southeast 490 564 35,000  Level Winnipeg Center
Sun 11:14:48 AM 49.4000 -107.6500 97° East 490 564 35,000  Level Winnipeg Center
Sun 11:15:48 AM 49.3667 -107.4667 106° East 490 564 35,000  Level Winnipeg Center
Sun 11:16:48 AM 49.3333 -107.2833 106° East 480 552 35,000  Level Winnipeg Center
Sun 11:17:48 AM 49.2833 -107.0667 109° East 480 552 35,000  Level Winnipeg Center
Sun 11:18:48 AM 49.2500 -106.8667 104° East 480 552 35,000  Level Winnipeg Center
Sun 11:19:48 AM 49.2000 -106.6833 113° Southeast 480 552 35,000  Level Winnipeg Center
Sun 11:20:48 AM 49.1667 -106.5000 105° East 480 552 35,000  Level Winnipeg Center
Sun 11:21:48 AM 49.1333 -106.2833 103° East 480 552 35,000  Level Winnipeg Center
Sun 11:22:48 AM 49.1000 -106.1000 105° East 480 552 35,000  Level Winnipeg Center
Sun 11:23:23 AM 49.0872 -105.9906 100° East 484 557 35,000  Level Salt Lake Center
Sun 11:24:25 AM 49.0383 -105.7539 107° East 488 562 35,000  Level Salt Lake Center
Sun 11:25:27 AM 48.9981 -105.5561 107° East 489 563 35,000  Level Salt Lake Center
Sun 11:26:16 AM 48.9333 -105.4000 122° Southeast 490 564 35,000  Level Edmonton Center
Sun 11:26:48 AM 48.9167 -105.3000 104° East 490 564 35,000  Level Winnipeg Center
Sun 11:27:48 AM 48.8833 -105.1167 105° East 490 564 35,000  Level Winnipeg Center
Sun 11:28:32 AM 48.8728 -104.9672 96° East 489 563 35,000  Level Salt Lake Center
Sun 11:29:34 AM 48.8286 -104.7722 109° East 490 564 35,000  Level Salt Lake Center
Sun 11:30:36 AM 48.7869 -104.5731 108° East 491 565 35,000  Level Salt Lake Center
Sun 11:31:38 AM 48.7339 -104.3408 109° East 490 564 35,000  Level Salt Lake Center
Sun 11:32:48 AM 48.6667 -104.1333 116° Southeast 500 575 35,000  Level Winnipeg Center
Sun 11:33:48 AM 48.6167 -103.9333 111° Southeast 500 575 35,000  Level Winnipeg Center
Sun 11:34:43 AM 48.6000 -103.7461 98° East 496 571 35,000  Level Salt Lake Center
Sun 11:35:45 AM 48.5547 -103.5481 109° East 497 572 35,000  Level Salt Lake Center
Sun 11:36:47 AM 48.5100 -103.3506 109° East 497 572 35,000  Level Salt Lake Center
Sun 11:37:49 AM 48.4633 -103.1531 110° East 498 573 35,000  Level Salt Lake Center
Sun 11:38:51 AM 48.4061 -102.9169 110° East 499 574 35,000  Level Salt Lake Center
Sun 11:39:53 AM 48.3592 -102.7178 109° East 501 577 35,000  Level Salt Lake Center
Sun 11:40:54 AM 48.3117 -102.5192 110° East 502 578 35,000  Level Salt Lake Center
Sun 11:41:56 AM 48.2639 -102.3211 110° East 504 580 35,000  Level Salt Lake Center
Sun 11:42:58 AM 48.2144 -102.1244 111° Southeast 504 580 35,000  Level Salt Lake Center
Sun 11:44:00 AM 48.1667 -101.9261 110° East 504 580 35,000  Level Salt Lake Center
Sun 11:45:02 AM 48.1175 -101.7294 110° East 505 581 35,000  Level Salt Lake Center
Sun 11:46:20 AM 48.0436 -101.4519 112° Southeast 508 585 35,000  Level Minneapolis Center
Sun 11:47:21 AM 47.9919 -101.2561 111° Southeast 508 585 35,000  Level Minneapolis Center
Sun 11:48:23 AM 47.9444 -101.0647 110° East 510 587 35,000  Level Minneapolis Center
Sun 11:49:25 AM 47.8933 -100.8692 111° Southeast 510 587 35,000  Level Minneapolis Center
Sun 11:50:26 AM 47.8336 -100.6356 111° Southeast 508 585 35,000  Level Minneapolis Center
Sun 11:51:28 AM 47.7814 -100.4408 112° Southeast 509 586 35,000  Level Minneapolis Center
Sun 11:52:30 AM 47.7300 -100.2469 111° Southeast 508 585 35,000  Level Minneapolis Center
Sun 11:53:32 AM 47.6803 -100.0506 111° Southeast 511 588 35,000  Level Minneapolis Center
Sun 11:54:33 AM 47.6308 -99.8578 111° Southeast 506 582 35,000  Level Minneapolis Center
Sun 11:55:35 AM 47.5767 -99.6619 112° Southeast 513 590 35,000  Level Minneapolis Center
Sun 11:56:37 AM 47.5244 -99.4694 112° Southeast 509 586 35,000  Level Minneapolis Center
Sun 11:57:39 AM 47.4608 -99.2386 112° Southeast 508 585 35,000  Level Minneapolis Center
Sun 11:58:41 AM 47.4069 -99.0458 112° Southeast 509 586 35,000  Level Minneapolis Center
Sun 11:59:42 AM 47.3539 -98.8531 112° Southeast 510 587 35,000  Level Minneapolis Center
Sun 12:00:44 PM 47.3019 -98.6600 112° Southeast 511 588 35,000  Level Minneapolis Center
Sun 12:01:46 PM 47.2475 -98.4706 113° Southeast 509 586 35,000  Level Minneapolis Center
Sun 12:02:48 PM 47.1822 -98.2425 113° Southeast 510 587 35,000  Level Minneapolis Center
Sun 12:03:50 PM 47.1275 -98.0539 113° Southeast 509 586 35,000  Level Minneapolis Center
Sun 12:04:51 PM 47.0725 -97.8653 113° Southeast 510 587 35,000  Level Minneapolis Center
Sun 12:05:53 PM 47.0172 -97.6733 113° Southeast 514 592 35,000  Level Minneapolis Center
Sun 12:06:55 PM 46.9572 -97.4861 115° Southeast 513 590 35,000  Level Minneapolis Center
Sun 12:07:57 PM 46.8933 -97.3003 117° Southeast 515 593 35,000  Level Minneapolis Center
Sun 12:08:59 PM 46.8167 -97.0783 117° Southeast 515 593 35,000  Level Minneapolis Center
Sun 12:10:01 PM 46.7533 -96.8956 117° Southeast 509 586 35,000  Level Minneapolis Center
Sun 12:11:02 PM 46.6906 -96.7111 116° Southeast 510 587 35,000  Level Minneapolis Center
Sun 12:12:04 PM 46.6264 -96.5289 117° Southeast 508 585 35,000  Level Minneapolis Center
Sun 12:13:06 PM 46.5622 -96.3461 117° Southeast 508 585 35,000  Level Minneapolis Center
Sun 12:14:08 PM 46.4983 -96.1653 117° Southeast 507 583 35,000  Level Minneapolis Center
Sun 12:15:10 PM 46.4206 -95.9478 117° Southeast 508 585 35,000  Level Minneapolis Center
Sun 12:16:12 PM 46.3619 -95.7872 118° Southeast 505 581 35,000  Level Minneapolis Center
Sun 12:17:14 PM 46.2842 -95.5706 117° Southeast 506 582 35,000  Level Minneapolis Center
Sun 12:18:16 PM 46.2294 -95.4186 117° Southeast 509 586 35,000  Level Minneapolis Center
Sun 12:19:18 PM 46.1514 -95.2108 118° Southeast 506 582 35,000  Level Minneapolis Center
Sun 12:20:19 PM 46.0911 -95.0400 117° Southeast 505 581 35,000 -1,024 Level Minneapolis Center
Sun 12:21:21 PM 46.0264 -94.8683 118° Southeast 494 568 32,900 -2,758 Descending Minneapolis Center
Sun 12:22:23 PM 45.9492 -94.6628 118° Southeast 490 564 29,300 -3,097 Descending Minneapolis Center
Sun 12:23:25 PM 45.8869 -94.4936 118° Southeast 485 558 26,500 -2,661 Descending Minneapolis Center
Sun 12:24:27 PM 45.8272 -94.3344 118° Southeast 467 537 23,800 -2,613 Descending Minneapolis Center
Sun 12:25:29 PM 45.7686 -94.1844 119° Southeast 443 510 21,100 -2,468 Descending Minneapolis Center
Sun 12:26:31 PM 45.7125 -94.0378 119° Southeast 429 494 18,700 -2,371 Descending Minneapolis Center
Sun 12:27:33 PM 45.6578 -93.8950 119° Southeast 413 475 16,200 -2,371 Descending Minneapolis Center
Sun 12:28:35 PM 45.6031 -93.7561 119° Southeast 403 464 13,800 -2,468 Descending Minneapolis Center
Sun 12:29:37 PM 45.5406 -93.5981 119° Southeast 383 441 11,100 -1,597 Descending Minneapolis Center
Sun 12:30:39 PM 45.4553 -93.5419 155° Southeast 337 388 10,500 -823 Descending Minneapolis Center
Sun 12:31:41 PM 45.3767 -93.5172 168° South 292 336 9,400 -1,210 Descending Minneapolis Center
Sun 12:32:43 PM 45.3014 -93.5014 172° South 276 318 8,000 -1,161 Descending Minneapolis Center
Sun 12:33:45 PM 45.2269 -93.4972 178° South 269 310 7,000 -823 Descending Minneapolis Center
Sun 12:34:47 PM 45.1542 -93.4906 176° South 263 303 6,300 -1,210 Descending Minneapolis Center
Sun 12:35:49 PM 45.0708 -93.4853 177° South 251 289 4,500 -1,113 Descending Minneapolis Center
Sun 12:36:51 PM 45.0108 -93.4719 171° South 227 261 4,000 -238 Descending Minneapolis Center
Sun 12:37:55 PM 44.9681 -93.4222 141° Southeast 200 230 4,000 -476 Level Minneapolis Center
Sun 12:38:57 PM 44.9417 -93.3586 120° Southeast 191 220 3,000 -919 Descending Minneapolis Center
Sun 12:39:59 PM 44.9200 -93.3089 122° Southeast 156 180 2,100 -823 Descending Minneapolis Center
Sun 12:41:01 PM 44.8983 -93.2583 121° Southeast 128 147 1,300 -774 Descending Minneapolis Center
Sun 12:43:00 PM 44.8820 -93.2218 127° Southeast  Level Estimated

Login

Don't have an account? Register now (free) for customized features, flight alerts, and more!